Weather at Eaglescott Airfield

Public forecast

Using degrees Celsius for public forecast. Weather courtesy of forecast.io.

Closest aviation weather report (METAR) to Eaglescott Airfield

Closest report is Exeter International Airport, 24.7 nm (45.8 km) ESE. Retrieved 2021/09/27 21:20 UTC (6 minutes ago):

EGTE 272120Z 21008KT 9999 FEW030 12/08 Q1018

Closest aviation forecast (TAF) to Eaglescott Airfield

Forecast is more than 12 hours old.

Closest forecast is Exeter International Airport, 24.7 nm (45.8 km) ESE. Retrieved 2012/04/19 12:15 UTC (9 years ago):

TAF TAF EGTE 191401Z 1912/1924 31016KT 9999 SCT030 SCT035 PROB40 TEMPO 1915/1918 7000 SHRA BKN014